Pine River, Canada
Current Conditions -  °F | °C
As of 8:00 AM on Friday 19 Dec 2014 (Local Time) from CYDN Reporting Station
Overcast Overcast  
Wind Chill: 21°   Ceiling: 1400
Heat Index: 21°   Visibility: 9mi
Dew Point: 18°   Wind: 3mph
Humidity: 86%   Direction: 140°SE
Pressure: 30"   Gusts: NA
Location:  51.78°N, 100.53°W
Report Text: CYDN 191400Z AUTO 14003KT 9SM OVC014 M06/M08 A3000 RMK SLP182
Loading
Personal Weather Stations






























Interactive Weather Map New forecast layout! Learn more

10-Day Weather Forecast

Advertisements
Track Severe Weather on mobile